sim
Sign-in with your pilot id or email,
or register
Callsign
Passwort

Schedule Details

Flight Number: OEO7991
Departure: Chicago O'Hare International Airport (KORD) at 23:20
Arrival: Munich Airport (EDDM) at 08:25

Weather Information
Getting current METAR information for KORD 210551Z 14005KT 10SM FEW250 16/02 A3037 RMK AO2 SLP281 T01560022 10189 20156 402280089 53000 $
Getting current METAR information for EDDM 210550Z VRB01KT 9999 1500SE BCFG NSC 07/07 Q1017 NOSIG

Schedule Frequency

Route Map